sensor_id;sensor_type;location;lat;lon;timestamp;P1;durP1;ratioP1;P2;durP2;ratioP2
65234;SDS011;51820;48.374;10.930;2024-03-02T00:01:26;19.73;;;10.38;;
65234;SDS011;51820;48.374;10.930;2024-03-02T00:03:55;23.33;;;10.70;;
65234;SDS011;51820;48.374;10.930;2024-03-02T00:06:24;17.83;;;10.55;;
65234;SDS011;51820;48.374;10.930;2024-03-02T00:08:57;18.20;;;9.50;;
65234;SDS011;51820;48.374;10.930;2024-03-02T00:11:26;17.90;;;9.57;;
65234;SDS011;51820;48.374;10.930;2024-03-02T00:13:55;19.15;;;10.52;;
65234;SDS011;51820;48.374;10.930;2024-03-02T00:16:23;16.77;;;9.63;;
65234;SDS011;51820;48.374;10.930;2024-03-02T00:18:52;20.90;;;10.70;;
65234;SDS011;51820;48.374;10.930;2024-03-02T00:21:20;17.60;;;9.50;;
65234;SDS011;51820;48.374;10.930;2024-03-02T00:23:50;19.70;;;10.52;;
65234;SDS011;51820;48.374;10.930;2024-03-02T00:26:20;16.10;;;9.15;;
65234;SDS011;51820;48.374;10.930;2024-03-02T00:28:49;21.03;;;9.50;;
65234;SDS011;51820;48.374;10.930;2024-03-02T00:31:18;18.75;;;9.55;;
65234;SDS011;51820;48.374;10.930;2024-03-02T00:33:48;19.75;;;9.48;;
65234;SDS011;51820;48.374;10.930;2024-03-02T00:36:21;16.70;;;9.52;;
65234;SDS011;51820;48.374;10.930;2024-03-02T00:38:51;16.60;;;8.93;;
65234;SDS011;51820;48.374;10.930;2024-03-02T00:41:22;17.60;;;9.27;;
65234;SDS011;51820;48.374;10.930;2024-03-02T00:44:01;15.40;;;9.00;;
65234;SDS011;51820;48.374;10.930;2024-03-02T00:46:34;16.55;;;8.38;;
65234;SDS011;51820;48.374;10.930;2024-03-02T00:49:03;17.40;;;9.05;;
65234;SDS011;51820;48.374;10.930;2024-03-02T00:51:33;18.02;;;8.48;;
65234;SDS011;51820;48.374;10.930;2024-03-02T00:54:03;17.67;;;9.00;;
65234;SDS011;51820;48.374;10.930;2024-03-02T00:56:33;16.40;;;9.02;;
65234;SDS011;51820;48.374;10.930;2024-03-02T00:59:05;20.60;;;9.25;;
65234;SDS011;51820;48.374;10.930;2024-03-02T01:01:33;17.65;;;9.07;;
65234;SDS011;51820;48.374;10.930;2024-03-02T01:04:02;15.73;;;8.60;;
65234;SDS011;51820;48.374;10.930;2024-03-02T01:06:30;14.87;;;7.67;;
65234;SDS011;51820;48.374;10.930;2024-03-02T01:08:59;18.13;;;8.55;;
65234;SDS011;51820;48.374;10.930;2024-03-02T01:11:28;16.98;;;8.95;;
65234;SDS011;51820;48.374;10.930;2024-03-02T01:13:58;15.93;;;9.02;;
65234;SDS011;51820;48.374;10.930;2024-03-02T01:16:27;18.02;;;8.77;;
65234;SDS011;51820;48.374;10.930;2024-03-02T01:18:55;19.27;;;9.13;;
65234;SDS011;51820;48.374;10.930;2024-03-02T01:21:25;17.50;;;8.23;;
65234;SDS011;51820;48.374;10.930;2024-03-02T01:23:54;15.02;;;8.13;;
65234;SDS011;51820;48.374;10.930;2024-03-02T01:26:22;14.63;;;7.75;;
65234;SDS011;51820;48.374;10.930;2024-03-02T01:28:51;18.45;;;8.98;;
65234;SDS011;51820;48.374;10.930;2024-03-02T01:31:20;14.03;;;8.20;;
65234;SDS011;51820;48.374;10.930;2024-03-02T01:33:50;16.23;;;8.50;;
65234;SDS011;51820;48.374;10.930;2024-03-02T01:36:18;16.35;;;8.93;;
65234;SDS011;51820;48.374;10.930;2024-03-02T01:38:47;15.45;;;8.07;;
65234;SDS011;51820;48.374;10.930;2024-03-02T01:41:15;14.18;;;7.88;;
65234;SDS011;51820;48.374;10.930;2024-03-02T01:43:44;14.70;;;7.47;;
65234;SDS011;51820;48.374;10.930;2024-03-02T01:46:12;15.35;;;7.68;;
65234;SDS011;51820;48.374;10.930;2024-03-02T01:48:42;16.52;;;7.43;;
65234;SDS011;51820;48.374;10.930;2024-03-02T01:51:11;13.07;;;7.18;;
65234;SDS011;51820;48.374;10.930;2024-03-02T01:53:39;14.65;;;7.93;;
65234;SDS011;51820;48.374;10.930;2024-03-02T01:56:08;14.57;;;7.67;;
65234;SDS011;51820;48.374;10.930;2024-03-02T01:58:37;13.15;;;7.20;;
65234;SDS011;51820;48.374;10.930;2024-03-02T02:01:05;17.05;;;8.68;;
65234;SDS011;51820;48.374;10.930;2024-03-02T02:03:34;17.75;;;8.00;;
65234;SDS011;51820;48.374;10.930;2024-03-02T02:06:05;13.38;;;7.18;;
65234;SDS011;51820;48.374;10.930;2024-03-02T02:08:33;14.37;;;7.70;;
65234;SDS011;51820;48.374;10.930;2024-03-02T02:11:02;13.68;;;7.78;;
65234;SDS011;51820;48.374;10.930;2024-03-02T02:13:30;14.18;;;7.47;;
65234;SDS011;51820;48.374;10.930;2024-03-02T02:16:04;14.65;;;8.10;;
65234;SDS011;51820;48.374;10.930;2024-03-02T02:18:32;15.13;;;8.63;;
65234;SDS011;51820;48.374;10.930;2024-03-02T02:21:01;15.03;;;8.10;;
65234;SDS011;51820;48.374;10.930;2024-03-02T02:23:31;19.20;;;7.65;;
65234;SDS011;51820;48.374;10.930;2024-03-02T02:26:00;15.15;;;8.10;;
65234;SDS011;51820;48.374;10.930;2024-03-02T02:28:30;15.48;;;7.50;;
65234;SDS011;51820;48.374;10.930;2024-03-02T02:30:58;15.32;;;7.97;;
65234;SDS011;51820;48.374;10.930;2024-03-02T02:33:27;19.10;;;8.63;;
65234;SDS011;51820;48.374;10.930;2024-03-02T02:35:56;14.60;;;7.80;;
65234;SDS011;51820;48.374;10.930;2024-03-02T02:38:24;17.63;;;8.65;;
65234;SDS011;51820;48.374;10.930;2024-03-02T02:40:54;16.02;;;7.72;;
65234;SDS011;51820;48.374;10.930;2024-03-02T02:43:23;13.32;;;6.82;;
65234;SDS011;51820;48.374;10.930;2024-03-02T02:45:51;15.57;;;7.63;;
65234;SDS011;51820;48.374;10.930;2024-03-02T02:48:20;15.40;;;8.27;;
65234;SDS011;51820;48.374;10.930;2024-03-02T02:50:48;14.35;;;7.55;;
65234;SDS011;51820;48.374;10.930;2024-03-02T02:53:17;14.23;;;7.93;;
65234;SDS011;51820;48.374;10.930;2024-03-02T02:55:45;14.82;;;8.50;;
65234;SDS011;51820;48.374;10.930;2024-03-02T02:58:15;19.13;;;9.07;;
65234;SDS011;51820;48.374;10.930;2024-03-02T03:00:44;17.67;;;9.07;;
65234;SDS011;51820;48.374;10.930;2024-03-02T03:03:12;16.30;;;8.88;;
65234;SDS011;51820;48.374;10.930;2024-03-02T03:05:41;15.43;;;8.23;;
65234;SDS011;51820;48.374;10.930;2024-03-02T03:08:09;17.80;;;9.48;;
65234;SDS011;51820;48.374;10.930;2024-03-02T03:10:38;18.03;;;8.47;;
65234;SDS011;51820;48.374;10.930;2024-03-02T03:13:06;17.73;;;9.00;;
65234;SDS011;51820;48.374;10.930;2024-03-02T03:15:36;16.00;;;9.10;;
65234;SDS011;51820;48.374;10.930;2024-03-02T03:18:05;16.38;;;9.13;;
65234;SDS011;51820;48.374;10.930;2024-03-02T03:20:34;16.40;;;9.07;;
65234;SDS011;51820;48.374;10.930;2024-03-02T03:23:03;16.87;;;9.60;;
65234;SDS011;51820;48.374;10.930;2024-03-02T03:25:32;17.95;;;9.55;;
65234;SDS011;51820;48.374;10.930;2024-03-02T03:28:00;16.77;;;9.20;;
65234;SDS011;51820;48.374;10.930;2024-03-02T03:30:29;15.20;;;8.50;;
65234;SDS011;51820;48.374;10.930;2024-03-02T03:32:59;16.80;;;9.15;;
65234;SDS011;51820;48.374;10.930;2024-03-02T03:35:28;19.23;;;10.10;;
65234;SDS011;51820;48.374;10.930;2024-03-02T03:37:56;17.83;;;9.27;;
65234;SDS011;51820;48.374;10.930;2024-03-02T03:40:25;17.15;;;9.93;;
65234;SDS011;51820;48.374;10.930;2024-03-02T03:42:53;17.02;;;9.38;;
65234;SDS011;51820;48.374;10.930;2024-03-02T03:45:23;16.48;;;8.88;;
65234;SDS011;51820;48.374;10.930;2024-03-02T03:47:53;16.20;;;9.20;;
65234;SDS011;51820;48.374;10.930;2024-03-02T03:50:23;16.85;;;9.60;;
65234;SDS011;51820;48.374;10.930;2024-03-02T03:52:52;18.70;;;9.50;;
65234;SDS011;51820;48.374;10.930;2024-03-02T03:55:20;15.77;;;9.52;;
65234;SDS011;51820;48.374;10.930;2024-03-02T03:57:49;19.05;;;9.27;;
65234;SDS011;51820;48.374;10.930;2024-03-02T04:00:17;16.13;;;9.50;;
65234;SDS011;51820;48.374;10.930;2024-03-02T04:02:46;19.85;;;10.43;;
65234;SDS011;51820;48.374;10.930;2024-03-02T04:05:15;16.73;;;9.40;;
65234;SDS011;51820;48.374;10.930;2024-03-02T04:07:44;18.23;;;9.98;;
65234;SDS011;51820;48.374;10.930;2024-03-02T04:10:13;16.63;;;9.70;;
65234;SDS011;51820;48.374;10.930;2024-03-02T04:12:43;17.50;;;9.23;;
65234;SDS011;51820;48.374;10.930;2024-03-02T04:15:11;17.45;;;9.63;;
65234;SDS011;51820;48.374;10.930;2024-03-02T04:17:40;16.73;;;9.02;;
65234;SDS011;51820;48.374;10.930;2024-03-02T04:20:08;16.25;;;9.13;;
65234;SDS011;51820;48.374;10.930;2024-03-02T04:22:39;16.50;;;9.02;;
65234;SDS011;51820;48.374;10.930;2024-03-02T04:25:09;15.73;;;9.30;;
65234;SDS011;51820;48.374;10.930;2024-03-02T04:27:37;17.40;;;9.60;;
65234;SDS011;51820;48.374;10.930;2024-03-02T04:30:06;17.13;;;9.88;;
65234;SDS011;51820;48.374;10.930;2024-03-02T04:32:34;17.08;;;9.02;;
65234;SDS011;51820;48.374;10.930;2024-03-02T04:35:03;15.07;;;9.48;;
65234;SDS011;51820;48.374;10.930;2024-03-02T04:37:34;17.43;;;9.67;;
65234;SDS011;51820;48.374;10.930;2024-03-02T04:40:03;16.75;;;9.52;;
65234;SDS011;51820;48.374;10.930;2024-03-02T04:42:35;18.10;;;10.05;;
65234;SDS011;51820;48.374;10.930;2024-03-02T04:45:04;16.45;;;9.23;;
65234;SDS011;51820;48.374;10.930;2024-03-02T04:47:33;16.85;;;10.00;;
65234;SDS011;51820;48.374;10.930;2024-03-02T04:50:02;17.63;;;9.47;;
65234;SDS011;51820;48.374;10.930;2024-03-02T04:52:30;17.00;;;9.85;;
65234;SDS011;51820;48.374;10.930;2024-03-02T04:54:59;18.38;;;9.75;;
65234;SDS011;51820;48.374;10.930;2024-03-02T04:57:47;15.55;;;9.30;;
65234;SDS011;51820;48.374;10.930;2024-03-02T05:00:17;16.77;;;9.38;;
65234;SDS011;51820;48.374;10.930;2024-03-02T05:02:46;16.50;;;9.83;;
65234;SDS011;51820;48.374;10.930;2024-03-02T05:05:14;19.92;;;9.60;;
65234;SDS011;51820;48.374;10.930;2024-03-02T05:07:43;15.52;;;9.10;;
65234;SDS011;51820;48.374;10.930;2024-03-02T05:10:11;17.88;;;9.70;;
65234;SDS011;51820;48.374;10.930;2024-03-02T05:12:41;17.77;;;9.80;;
65234;SDS011;51820;48.374;10.930;2024-03-02T05:15:25;19.30;;;10.63;;
65234;SDS011;51820;48.374;10.930;2024-03-02T05:17:54;16.80;;;9.55;;
65234;SDS011;51820;48.374;10.930;2024-03-02T05:20:23;18.13;;;10.25;;
65234;SDS011;51820;48.374;10.930;2024-03-02T05:22:52;17.05;;;10.02;;
65234;SDS011;51820;48.374;10.930;2024-03-02T05:25:20;20.33;;;10.90;;
65234;SDS011;51820;48.374;10.930;2024-03-02T05:27:49;25.77;;;11.67;;
65234;SDS011;51820;48.374;10.930;2024-03-02T05:30:17;21.73;;;11.68;;
65234;SDS011;51820;48.374;10.930;2024-03-02T05:32:47;19.55;;;11.48;;
65234;SDS011;51820;48.374;10.930;2024-03-02T05:35:15;19.77;;;11.27;;
65234;SDS011;51820;48.374;10.930;2024-03-02T05:37:44;23.10;;;12.05;;
65234;SDS011;51820;48.374;10.930;2024-03-02T05:40:13;20.83;;;11.13;;
65234;SDS011;51820;48.374;10.930;2024-03-02T05:42:42;20.00;;;10.77;;
65234;SDS011;51820;48.374;10.930;2024-03-02T05:45:10;17.30;;;10.30;;
65234;SDS011;51820;48.374;10.930;2024-03-02T05:47:39;18.38;;;10.50;;
65234;SDS011;51820;48.374;10.930;2024-03-02T05:50:09;17.92;;;10.13;;
65234;SDS011;51820;48.374;10.930;2024-03-02T05:52:37;17.73;;;10.57;;
65234;SDS011;51820;48.374;10.930;2024-03-02T05:55:06;18.15;;;10.07;;
65234;SDS011;51820;48.374;10.930;2024-03-02T05:57:35;20.17;;;11.60;;
65234;SDS011;51820;48.374;10.930;2024-03-02T06:00:16;18.90;;;10.38;;
65234;SDS011;51820;48.374;10.930;2024-03-02T06:02:45;19.27;;;10.95;;
65234;SDS011;51820;48.374;10.930;2024-03-02T06:05:16;18.37;;;10.73;;
65234;SDS011;51820;48.374;10.930;2024-03-02T06:07:45;20.55;;;11.13;;
65234;SDS011;51820;48.374;10.930;2024-03-02T06:10:13;21.48;;;11.02;;
65234;SDS011;51820;48.374;10.930;2024-03-02T06:12:42;20.63;;;11.45;;
65234;SDS011;51820;48.374;10.930;2024-03-02T06:15:11;18.20;;;11.35;;
65234;SDS011;51820;48.374;10.930;2024-03-02T06:17:39;16.57;;;10.17;;
65234;SDS011;51820;48.374;10.930;2024-03-02T06:20:08;21.10;;;10.88;;
65234;SDS011;51820;48.374;10.930;2024-03-02T06:22:39;17.70;;;9.90;;
65234;SDS011;51820;48.374;10.930;2024-03-02T06:25:09;18.02;;;10.63;;
65234;SDS011;51820;48.374;10.930;2024-03-02T06:27:38;20.17;;;11.35;;
65234;SDS011;51820;48.374;10.930;2024-03-02T06:30:07;18.30;;;10.67;;
65234;SDS011;51820;48.374;10.930;2024-03-02T06:32:35;19.02;;;10.70;;
65234;SDS011;51820;48.374;10.930;2024-03-02T06:35:04;18.27;;;10.40;;
65234;SDS011;51820;48.374;10.930;2024-03-02T06:37:36;17.42;;;10.43;;
65234;SDS011;51820;48.374;10.930;2024-03-02T06:40:07;19.55;;;10.65;;
65234;SDS011;51820;48.374;10.930;2024-03-02T06:42:35;19.70;;;11.13;;
65234;SDS011;51820;48.374;10.930;2024-03-02T06:45:04;18.52;;;10.23;;
65234;SDS011;51820;48.374;10.930;2024-03-02T06:47:33;19.30;;;10.60;;
65234;SDS011;51820;48.374;10.930;2024-03-02T06:50:02;30.90;;;16.88;;
65234;SDS011;51820;48.374;10.930;2024-03-02T06:52:31;36.25;;;17.30;;
65234;SDS011;51820;48.374;10.930;2024-03-02T06:54:59;34.00;;;17.17;;
65234;SDS011;51820;48.374;10.930;2024-03-02T06:57:29;22.30;;;11.95;;
65234;SDS011;51820;48.374;10.930;2024-03-02T06:59:58;20.95;;;11.18;;
65234;SDS011;51820;48.374;10.930;2024-03-02T07:02:35;21.60;;;11.13;;
65234;SDS011;51820;48.374;10.930;2024-03-02T07:05:04;17.45;;;10.23;;
65234;SDS011;51820;48.374;10.930;2024-03-02T07:07:33;18.93;;;10.90;;
65234;SDS011;51820;48.374;10.930;2024-03-02T07:10:03;19.08;;;10.75;;
65234;SDS011;51820;48.374;10.930;2024-03-02T07:12:35;21.02;;;11.07;;
65234;SDS011;51820;48.374;10.930;2024-03-02T07:15:04;18.38;;;10.05;;
65234;SDS011;51820;48.374;10.930;2024-03-02T07:17:51;16.63;;;9.70;;
65234;SDS011;51820;48.374;10.930;2024-03-02T07:20:20;17.87;;;9.80;;
65234;SDS011;51820;48.374;10.930;2024-03-02T07:22:48;17.60;;;9.65;;
65234;SDS011;51820;48.374;10.930;2024-03-02T07:25:23;17.65;;;10.07;;
65234;SDS011;51820;48.374;10.930;2024-03-02T07:27:56;18.58;;;9.82;;
65234;SDS011;51820;48.374;10.930;2024-03-02T07:30:25;17.60;;;9.80;;
65234;SDS011;51820;48.374;10.930;2024-03-02T07:32:55;17.60;;;9.73;;
65234;SDS011;51820;48.374;10.930;2024-03-02T07:35:24;18.67;;;8.85;;
65234;SDS011;51820;48.374;10.930;2024-03-02T07:37:54;17.02;;;9.70;;
65234;SDS011;51820;48.374;10.930;2024-03-02T07:40:23;18.45;;;9.65;;
65234;SDS011;51820;48.374;10.930;2024-03-02T07:42:51;17.83;;;9.65;;
65234;SDS011;51820;48.374;10.930;2024-03-02T07:45:21;18.40;;;9.27;;
65234;SDS011;51820;48.374;10.930;2024-03-02T07:47:49;18.20;;;8.68;;
65234;SDS011;51820;48.374;10.930;2024-03-02T07:50:18;14.68;;;8.82;;
65234;SDS011;51820;48.374;10.930;2024-03-02T07:52:47;14.85;;;8.20;;
65234;SDS011;51820;48.374;10.930;2024-03-02T07:55:15;14.75;;;7.68;;
65234;SDS011;51820;48.374;10.930;2024-03-02T07:57:44;13.60;;;7.77;;
65234;SDS011;51820;48.374;10.930;2024-03-02T08:00:13;16.30;;;7.40;;
65234;SDS011;51820;48.374;10.930;2024-03-02T08:02:43;13.40;;;6.32;;
65234;SDS011;51820;48.374;10.930;2024-03-02T08:05:12;11.40;;;5.90;;
65234;SDS011;51820;48.374;10.930;2024-03-02T08:07:40;13.50;;;6.97;;
65234;SDS011;51820;48.374;10.930;2024-03-02T08:10:09;12.53;;;6.63;;
65234;SDS011;51820;48.374;10.930;2024-03-02T08:12:37;18.05;;;8.30;;
65234;SDS011;51820;48.374;10.930;2024-03-02T08:15:06;15.88;;;8.68;;
65234;SDS011;51820;48.374;10.930;2024-03-02T08:17:35;11.82;;;6.15;;
65234;SDS011;51820;48.374;10.930;2024-03-02T08:20:06;12.27;;;5.60;;
65234;SDS011;51820;48.374;10.930;2024-03-02T08:22:35;11.60;;;5.27;;
65234;SDS011;51820;48.374;10.930;2024-03-02T08:25:04;9.93;;;4.95;;
65234;SDS011;51820;48.374;10.930;2024-03-02T08:27:33;8.52;;;4.45;;
65234;SDS011;51820;48.374;10.930;2024-03-02T08:30:01;10.35;;;5.05;;
65234;SDS011;51820;48.374;10.930;2024-03-02T08:32:33;10.35;;;5.05;;
65234;SDS011;51820;48.374;10.930;2024-03-02T08:35:02;11.63;;;5.77;;
65234;SDS011;51820;48.374;10.930;2024-03-02T08:37:32;10.05;;;4.80;;
65234;SDS011;51820;48.374;10.930;2024-03-02T08:40:01;10.73;;;5.40;;
65234;SDS011;51820;48.374;10.930;2024-03-02T08:42:33;10.70;;;4.93;;
65234;SDS011;51820;48.374;10.930;2024-03-02T08:45:02;9.98;;;5.15;;
65234;SDS011;51820;48.374;10.930;2024-03-02T08:47:30;10.57;;;5.00;;
65234;SDS011;51820;48.374;10.930;2024-03-02T08:49:59;8.90;;;4.30;;
65234;SDS011;51820;48.374;10.930;2024-03-02T08:52:28;13.25;;;4.63;;
65234;SDS011;51820;48.374;10.930;2024-03-02T08:54:58;10.02;;;4.82;;
65234;SDS011;51820;48.374;10.930;2024-03-02T08:57:26;10.45;;;5.00;;
65234;SDS011;51820;48.374;10.930;2024-03-02T08:59:55;10.20;;;4.87;;
65234;SDS011;51820;48.374;10.930;2024-03-02T09:02:24;9.70;;;5.28;;
65234;SDS011;51820;48.374;10.930;2024-03-02T09:04:53;20.15;;;9.90;;
65234;SDS011;51820;48.374;10.930;2024-03-02T09:07:21;12.82;;;6.35;;
65234;SDS011;51820;48.374;10.930;2024-03-02T09:09:50;11.55;;;5.53;;
65234;SDS011;51820;48.374;10.930;2024-03-02T09:12:20;16.33;;;8.07;;
65234;SDS011;51820;48.374;10.930;2024-03-02T09:14:49;10.70;;;5.55;;
65234;SDS011;51820;48.374;10.930;2024-03-02T09:17:17;9.27;;;4.72;;
65234;SDS011;51820;48.374;10.930;2024-03-02T09:19:46;8.23;;;4.35;;
65234;SDS011;51820;48.374;10.930;2024-03-02T09:22:14;10.98;;;4.53;;
65234;SDS011;51820;48.374;10.930;2024-03-02T09:24:43;9.30;;;3.80;;
65234;SDS011;51820;48.374;10.930;2024-03-02T09:27:11;12.13;;;4.15;;
65234;SDS011;51820;48.374;10.930;2024-03-02T09:29:41;12.90;;;3.67;;
65234;SDS011;51820;48.374;10.930;2024-03-02T09:32:12;13.65;;;5.93;;
65234;SDS011;51820;48.374;10.930;2024-03-02T09:34:40;8.30;;;3.58;;
65234;SDS011;51820;48.374;10.930;2024-03-02T09:37:09;7.33;;;3.33;;
65234;SDS011;51820;48.374;10.930;2024-03-02T09:39:38;11.48;;;5.00;;
65234;SDS011;51820;48.374;10.930;2024-03-02T09:42:06;8.38;;;4.22;;
65234;SDS011;51820;48.374;10.930;2024-03-02T09:44:35;10.18;;;3.60;;
65234;SDS011;51820;48.374;10.930;2024-03-02T09:47:06;8.57;;;3.40;;
65234;SDS011;51820;48.374;10.930;2024-03-02T09:49:34;7.07;;;3.57;;
65234;SDS011;51820;48.374;10.930;2024-03-02T09:52:05;8.27;;;3.70;;
65234;SDS011;51820;48.374;10.930;2024-03-02T09:54:35;7.15;;;3.53;;
65234;SDS011;51820;48.374;10.930;2024-03-02T09:57:04;8.02;;;2.97;;
65234;SDS011;51820;48.374;10.930;2024-03-02T09:59:32;8.43;;;3.28;;
65234;SDS011;51820;48.374;10.930;2024-03-02T10:02:02;6.87;;;2.97;;
65234;SDS011;51820;48.374;10.930;2024-03-02T10:04:35;10.25;;;3.50;;
65234;SDS011;51820;48.374;10.930;2024-03-02T10:07:13;6.82;;;2.97;;
65234;SDS011;51820;48.374;10.930;2024-03-02T10:09:41;7.55;;;3.50;;
65234;SDS011;51820;48.374;10.930;2024-03-02T10:12:11;11.70;;;3.30;;
65234;SDS011;51820;48.374;10.930;2024-03-02T10:14:42;8.33;;;2.90;;
65234;SDS011;51820;48.374;10.930;2024-03-02T10:17:11;9.70;;;2.78;;
65234;SDS011;51820;48.374;10.930;2024-03-02T10:19:41;8.50;;;3.17;;
65234;SDS011;51820;48.374;10.930;2024-03-02T10:22:10;12.63;;;3.63;;
65234;SDS011;51820;48.374;10.930;2024-03-02T10:24:38;11.15;;;4.00;;
65234;SDS011;51820;48.374;10.930;2024-03-02T10:27:08;7.87;;;3.43;;
65234;SDS011;51820;48.374;10.930;2024-03-02T10:29:38;9.65;;;3.80;;
65234;SDS011;51820;48.374;10.930;2024-03-02T10:32:10;7.20;;;3.35;;
65234;SDS011;51820;48.374;10.930;2024-03-02T10:34:44;9.32;;;3.58;;
65234;SDS011;51820;48.374;10.930;2024-03-02T10:37:13;6.78;;;2.80;;
65234;SDS011;51820;48.374;10.930;2024-03-02T10:39:43;6.80;;;3.10;;
65234;SDS011;51820;48.374;10.930;2024-03-02T10:42:34;9.25;;;3.65;;
65234;SDS011;51820;48.374;10.930;2024-03-02T10:45:14;7.82;;;3.63;;
65234;SDS011;51820;48.374;10.930;2024-03-02T10:47:49;8.90;;;3.38;;
65234;SDS011;51820;48.374;10.930;2024-03-02T10:50:27;9.90;;;3.95;;
65234;SDS011;51820;48.374;10.930;2024-03-02T10:52:56;9.73;;;4.60;;
65234;SDS011;51820;48.374;10.930;2024-03-02T10:55:24;10.90;;;5.60;;
65234;SDS011;51820;48.374;10.930;2024-03-02T10:57:54;13.30;;;5.50;;
65234;SDS011;51820;48.374;10.930;2024-03-02T11:00:24;10.05;;;5.00;;
65234;SDS011;51820;48.374;10.930;2024-03-02T11:02:57;10.95;;;5.15;;
65234;SDS011;51820;48.374;10.930;2024-03-02T11:05:34;10.37;;;4.77;;
65234;SDS011;51820;48.374;10.930;2024-03-02T11:08:06;9.15;;;4.40;;
65234;SDS011;51820;48.374;10.930;2024-03-02T11:10:35;10.63;;;5.00;;
65234;SDS011;51820;48.374;10.930;2024-03-02T11:13:05;12.63;;;5.45;;
65234;SDS011;51820;48.374;10.930;2024-03-02T11:15:36;10.20;;;4.70;;
65234;SDS011;51820;48.374;10.930;2024-03-02T11:18:05;9.13;;;4.10;;
65234;SDS011;51820;48.374;10.930;2024-03-02T11:20:37;12.82;;;3.88;;
65234;SDS011;51820;48.374;10.930;2024-03-02T11:23:07;13.77;;;4.88;;
65234;SDS011;51820;48.374;10.930;2024-03-02T11:25:36;10.45;;;4.60;;
65234;SDS011;51820;48.374;10.930;2024-03-02T11:28:06;9.90;;;4.40;;
65234;SDS011;51820;48.374;10.930;2024-03-02T11:30:48;11.07;;;4.60;;
65234;SDS011;51820;48.374;10.930;2024-03-02T11:33:24;11.70;;;5.15;;
65234;SDS011;51820;48.374;10.930;2024-03-02T11:35:56;13.18;;;6.18;;
65234;SDS011;51820;48.374;10.930;2024-03-02T11:38:31;13.85;;;5.95;;
65234;SDS011;51820;48.374;10.930;2024-03-02T11:41:00;10.27;;;5.35;;
65234;SDS011;51820;48.374;10.930;2024-03-02T11:43:29;11.27;;;5.70;;
65234;SDS011;51820;48.374;10.930;2024-03-02T11:45:59;14.70;;;5.78;;
65234;SDS011;51820;48.374;10.930;2024-03-02T11:48:35;10.77;;;5.32;;
65234;SDS011;51820;48.374;10.930;2024-03-02T11:51:06;10.43;;;5.32;;
65234;SDS011;51820;48.374;10.930;2024-03-02T11:53:41;15.90;;;6.80;;
65234;SDS011;51820;48.374;10.930;2024-03-02T11:56:10;12.20;;;5.43;;
65234;SDS011;51820;48.374;10.930;2024-03-02T11:58:41;15.13;;;6.03;;
65234;SDS011;51820;48.374;10.930;2024-03-02T12:01:10;13.35;;;6.95;;
65234;SDS011;51820;48.374;10.930;2024-03-02T12:03:40;13.75;;;6.55;;
65234;SDS011;51820;48.374;10.930;2024-03-02T12:06:10;11.55;;;6.50;;
65234;SDS011;51820;48.374;10.930;2024-03-02T12:08:40;13.87;;;7.00;;
65234;SDS011;51820;48.374;10.930;2024-03-02T12:11:12;12.75;;;6.72;;
65234;SDS011;51820;48.374;10.930;2024-03-02T12:13:51;15.32;;;7.57;;
65234;SDS011;51820;48.374;10.930;2024-03-02T12:16:24;14.48;;;7.28;;
65234;SDS011;51820;48.374;10.930;2024-03-02T12:18:53;13.50;;;6.40;;
65234;SDS011;51820;48.374;10.930;2024-03-02T12:21:23;15.33;;;6.67;;
65234;SDS011;51820;48.374;10.930;2024-03-02T12:23:52;16.17;;;8.20;;
65234;SDS011;51820;48.374;10.930;2024-03-02T12:26:21;15.82;;;8.43;;
65234;SDS011;51820;48.374;10.930;2024-03-02T12:28:50;17.33;;;8.63;;
65234;SDS011;51820;48.374;10.930;2024-03-02T12:31:19;17.88;;;8.50;;
65234;SDS011;51820;48.374;10.930;2024-03-02T12:33:47;14.63;;;8.13;;
65234;SDS011;51820;48.374;10.930;2024-03-02T12:36:16;19.63;;;8.75;;
65234;SDS011;51820;48.374;10.930;2024-03-02T12:38:48;19.40;;;9.45;;
65234;SDS011;51820;48.374;10.930;2024-03-02T12:41:17;18.63;;;9.05;;
65234;SDS011;51820;48.374;10.930;2024-03-02T12:43:45;18.45;;;9.75;;
65234;SDS011;51820;48.374;10.930;2024-03-02T12:46:14;17.87;;;8.73;;
65234;SDS011;51820;48.374;10.930;2024-03-02T12:48:43;16.35;;;8.43;;
65234;SDS011;51820;48.374;10.930;2024-03-02T12:51:11;17.75;;;8.40;;
65234;SDS011;51820;48.374;10.930;2024-03-02T12:53:40;16.65;;;8.13;;
65234;SDS011;51820;48.374;10.930;2024-03-02T12:56:10;18.20;;;7.35;;
65234;SDS011;51820;48.374;10.930;2024-03-02T12:58:39;16.43;;;6.90;;
65234;SDS011;51820;48.374;10.930;2024-03-02T13:01:08;16.25;;;7.43;;
65234;SDS011;51820;48.374;10.930;2024-03-02T13:03:38;15.48;;;8.23;;
65234;SDS011;51820;48.374;10.930;2024-03-02T13:06:10;16.90;;;8.52;;
65234;SDS011;51820;48.374;10.930;2024-03-02T13:08:39;15.30;;;7.40;;
65234;SDS011;51820;48.374;10.930;2024-03-02T13:11:23;15.93;;;7.33;;
65234;SDS011;51820;48.374;10.930;2024-03-02T13:14:00;17.33;;;8.35;;
65234;SDS011;51820;48.374;10.930;2024-03-02T13:16:28;17.48;;;8.75;;
65234;SDS011;51820;48.374;10.930;2024-03-02T13:19:07;18.13;;;8.50;;
65234;SDS011;51820;48.374;10.930;2024-03-02T13:21:35;17.45;;;8.68;;
65234;SDS011;51820;48.374;10.930;2024-03-02T13:24:05;19.33;;;9.27;;
65234;SDS011;51820;48.374;10.930;2024-03-02T13:26:40;16.50;;;8.65;;
65234;SDS011;51820;48.374;10.930;2024-03-02T13:29:09;18.00;;;9.10;;
65234;SDS011;51820;48.374;10.930;2024-03-02T13:31:38;18.83;;;9.45;;
65234;SDS011;51820;48.374;10.930;2024-03-02T13:34:06;18.38;;;9.45;;
65234;SDS011;51820;48.374;10.930;2024-03-02T13:36:35;18.90;;;8.97;;
65234;SDS011;51820;48.374;10.930;2024-03-02T13:39:05;19.85;;;9.30;;
65234;SDS011;51820;48.374;10.930;2024-03-02T13:41:36;24.52;;;9.52;;
65234;SDS011;51820;48.374;10.930;2024-03-02T13:44:08;23.88;;;10.15;;
65234;SDS011;51820;48.374;10.930;2024-03-02T13:46:36;22.15;;;10.38;;
65234;SDS011;51820;48.374;10.930;2024-03-02T13:49:05;20.70;;;10.83;;
65234;SDS011;51820;48.374;10.930;2024-03-02T13:51:33;21.00;;;10.45;;
65234;SDS011;51820;48.374;10.930;2024-03-02T13:54:02;21.55;;;10.75;;
65234;SDS011;51820;48.374;10.930;2024-03-02T13:56:37;20.08;;;10.27;;
65234;SDS011;51820;48.374;10.930;2024-03-02T13:59:09;19.38;;;10.27;;
65234;SDS011;51820;48.374;10.930;2024-03-02T14:01:56;23.50;;;10.73;;
65234;SDS011;51820;48.374;10.930;2024-03-02T14:04:41;19.80;;;10.63;;
65234;SDS011;51820;48.374;10.930;2024-03-02T14:07:13;23.60;;;10.15;;
65234;SDS011;51820;48.374;10.930;2024-03-02T14:09:44;19.50;;;9.20;;
65234;SDS011;51820;48.374;10.930;2024-03-02T14:12:13;18.05;;;9.90;;
65234;SDS011;51820;48.374;10.930;2024-03-02T14:14:43;19.10;;;9.30;;
65234;SDS011;51820;48.374;10.930;2024-03-02T14:17:12;19.33;;;8.82;;
65234;SDS011;51820;48.374;10.930;2024-03-02T14:19:41;22.42;;;9.15;;
65234;SDS011;51820;48.374;10.930;2024-03-02T14:22:09;16.90;;;8.48;;
65234;SDS011;51820;48.374;10.930;2024-03-02T14:24:40;18.50;;;8.15;;
65234;SDS011;51820;48.374;10.930;2024-03-02T14:27:09;16.73;;;8.13;;
65234;SDS011;51820;48.374;10.930;2024-03-02T14:29:55;15.63;;;7.53;;
65234;SDS011;51820;48.374;10.930;2024-03-02T14:32:23;20.23;;;8.77;;
65234;SDS011;51820;48.374;10.930;2024-03-02T14:34:52;17.65;;;8.07;;
65234;SDS011;51820;48.374;10.930;2024-03-02T14:37:21;18.17;;;8.23;;